Time;durP1;ratioP1;P1;durP2;ratioP2;P2;SDS_P1;SDS_P2;PMS_P1;PMS_P2;Temp;Humidity;BMP_temperature;BMP_pressure;BME280_temperature;BME280_humidity;BME280_pressure;Samples;Min_cycle;Max_cycle;Signal;HPM_P1;HPM_P2
2023/03/11 00:00:43;;;;;;;30.50;15.90;;;9.60;99.90;;;;;;4246870;27;20080;-61
2023/03/11 00:02:46;;;;;;;33.83;16.73;;;9.60;99.90;;;;;;4247669;27;20027;-61
2023/03/11 00:04:47;;;;;;;29.73;16.67;;;9.60;99.90;;;;;;4246471;27;20027;-62
2023/03/11 00:06:48;;;;;;;31.00;15.50;;;9.50;99.90;;;;;;4247885;27;20039;-61
2023/03/11 00:08:51;;;;;;;26.37;14.67;;;9.50;99.90;;;;;;4246394;27;20027;-63
2023/03/11 00:10:54;;;;;;;24.23;14.23;;;9.40;99.90;;;;;;4247679;27;20424;-61
2023/03/11 00:12:56;;;;;;;24.83;14.80;;;9.40;99.90;;;;;;4246633;27;20428;-61
2023/03/11 00:14:57;;;;;;;25.23;15.90;;;9.40;99.90;;;;;;4245577;27;20031;-64
2023/03/11 00:16:58;;;;;;;27.17;15.73;;;9.40;99.90;;;;;;4246351;27;20031;-69
2023/03/11 00:18:59;;;;;;;29.30;15.73;;;9.40;99.90;;;;;;4246908;27;20075;-62
2023/03/11 00:21:00;;;;;;;27.47;15.23;;;9.30;99.90;;;;;;4232568;27;20024;-61
2023/03/11 00:23:03;;;;;;;26.63;14.57;;;9.30;99.90;;;;;;4240509;27;20020;-62
2023/03/11 00:25:04;;;;;;;32.70;14.93;;;9.30;99.90;;;;;;4229892;27;20088;-63
2023/03/11 00:27:05;;;;;;;26.67;14.33;;;9.20;99.90;;;;;;4229214;28;20089;-61
2023/03/11 00:29:07;;;;;;;26.10;14.43;;;9.20;99.90;;;;;;4244287;27;20500;-61
2023/03/11 00:31:09;;;;;;;25.90;13.80;;;9.10;99.90;;;;;;4246088;27;20076;-62
2023/03/11 00:33:13;;;;;;;23.23;13.40;;;9.10;99.90;;;;;;4247304;27;20031;-67
2023/03/11 00:35:18;;;;;;;25.20;14.33;;;9.00;99.90;;;;;;4246014;27;20060;-63
2023/03/11 00:37:19;;;;;;;22.33;12.40;;;9.00;99.90;;;;;;4247178;27;20031;-62
2023/03/11 00:39:20;;;;;;;22.60;13.47;;;8.90;99.90;;;;;;4238884;27;20491;-61
2023/03/11 00:41:21;;;;;;;22.60;13.07;;;8.90;99.90;;;;;;4237300;27;20027;-62
2023/03/11 00:43:23;;;;;;;23.23;12.90;;;8.80;99.90;;;;;;4228848;28;20027;-63
2023/03/11 00:45:25;;;;;;;22.83;12.37;;;8.70;99.90;;;;;;4230235;28;20035;-60
2023/03/11 00:47:26;;;;;;;22.77;12.40;;;8.70;99.90;;;;;;4234459;27;20031;-61
2023/03/11 00:49:27;;;;;;;20.07;12.20;;;8.60;99.90;;;;;;4237229;27;20504;-67
2023/03/11 00:51:28;;;;;;;22.87;12.57;;;8.60;99.90;;;;;;4230898;27;20040;-61
2023/03/11 00:53:29;;;;;;;21.67;10.97;;;8.60;99.90;;;;;;4243299;27;20035;-60
2023/03/11 00:55:33;;;;;;;18.80;10.30;;;8.50;99.90;;;;;;4229244;28;20028;-61
2023/03/11 00:57:34;;;;;;;17.33;10.00;;;8.50;99.90;;;;;;4229115;28;20023;-68
2023/03/11 00:59:35;;;;;;;20.30;10.50;;;8.50;99.90;;;;;;4229593;28;20434;-61
2023/03/11 01:01:36;;;;;;;19.77;10.47;;;8.50;99.90;;;;;;4228690;28;20479;-61
2023/03/11 01:03:38;;;;;;;19.03;10.73;;;8.60;99.90;;;;;;4229656;28;20023;-62
2023/03/11 01:05:39;;;;;;;15.37;10.07;;;8.60;99.90;;;;;;4228561;27;20036;-62
2023/03/11 01:07:41;;;;;;;16.33;9.47;;;8.50;99.90;;;;;;4231654;27;20096;-61
2023/03/11 01:09:42;;;;;;;20.20;9.73;;;8.50;99.90;;;;;;4245482;27;20055;-62
2023/03/11 01:11:43;;;;;;;20.23;9.60;;;8.50;99.90;;;;;;4246574;27;20068;-65
2023/03/11 01:13:44;;;;;;;16.03;9.53;;;8.50;99.90;;;;;;4243584;27;20039;-62
2023/03/11 01:15:45;;;;;;;20.93;11.40;;;8.50;99.90;;;;;;4235083;27;20494;-60
2023/03/11 01:17:46;;;;;;;23.83;11.53;;;8.50;99.90;;;;;;4239830;27;20031;-58
2023/03/11 01:19:48;;;;;;;19.77;12.20;;;8.50;99.90;;;;;;4236443;27;20043;-66
2023/03/11 01:21:49;;;;;;;20.97;12.13;;;8.50;99.90;;;;;;4234891;27;20084;-62
2023/03/11 01:23:51;;;;;;;19.47;11.40;;;8.40;99.90;;;;;;4232062;27;20507;-60
2023/03/11 01:25:52;;;;;;;20.90;10.37;;;8.40;99.90;;;;;;4241864;27;20007;-62
2023/03/11 01:27:53;;;;;;;18.27;9.83;;;8.30;99.90;;;;;;4234799;27;20498;-63
2023/03/11 01:29:54;;;;;;;16.87;8.97;;;8.30;99.90;;;;;;4245835;27;20108;-61
2023/03/11 01:31:55;;;;;;;13.47;8.50;;;8.30;99.90;;;;;;4245135;27;20090;-66
2023/03/11 01:33:56;;;;;;;16.87;8.20;;;8.30;99.90;;;;;;4246101;27;20027;-60
2023/03/11 01:35:57;;;;;;;14.97;8.57;;;8.30;99.90;;;;;;4245179;27;20031;-61
2023/03/11 01:37:59;;;;;;;15.17;8.13;;;8.20;99.90;;;;;;4246491;27;20460;-61
2023/03/11 01:40:00;;;;;;;13.30;8.00;;;8.20;99.90;;;;;;4243178;27;20092;-61
2023/03/11 01:42:01;;;;;;;13.57;7.57;;;8.20;99.90;;;;;;4246154;27;20409;-61
2023/03/11 01:44:03;;;;;;;15.47;7.80;;;8.10;99.90;;;;;;4237968;27;20035;-61
2023/03/11 01:46:18;;;;;;;15.63;8.17;;;8.10;99.90;;;;;;4229173;28;20437;-61
2023/03/11 01:48:19;;;;;;;15.97;8.53;;;8.20;99.90;;;;;;4228024;27;20039;-63
2023/03/11 01:50:24;;;;;;;12.40;7.47;;;8.20;99.90;;;;;;4229407;27;20051;-63
2023/03/11 01:52:25;;;;;;;11.53;6.53;;;8.10;99.90;;;;;;4228032;27;20067;-64
2023/03/11 01:54:30;;;;;;;14.97;7.47;;;8.10;99.90;;;;;;4239035;27;20034;-61
2023/03/11 01:56:32;;;;;;;11.47;7.87;;;8.10;99.90;;;;;;4244830;27;20530;-61
2023/03/11 01:58:36;;;;;;;15.50;6.50;;;8.10;99.90;;;;;;4245541;27;20374;-62
2023/03/11 02:00:38;;;;;;;14.20;6.80;;;8.20;99.90;;;;;;4244387;27;20019;-63
2023/03/11 02:02:47;;;;;;;14.00;7.40;;;8.20;99.90;;;;;;4245041;27;20027;-61
2023/03/11 02:04:49;;;;;;;11.50;6.17;;;8.20;99.90;;;;;;4244632;27;20031;-60
2023/03/11 02:06:51;;;;;;;11.27;6.43;;;8.20;99.90;;;;;;4245048;27;20038;-67
2023/03/11 02:08:53;;;;;;;15.20;6.37;;;8.20;99.90;;;;;;4243820;27;20043;-60
2023/03/11 02:10:56;;;;;;;16.33;7.03;;;8.20;99.90;;;;;;4244557;27;20039;-64
2023/03/11 02:12:59;;;;;;;12.43;6.63;;;8.20;99.90;;;;;;4245960;27;20043;-61
2023/03/11 02:15:01;;;;;;;19.40;6.73;;;8.20;99.90;;;;;;4242663;27;20032;-57
2023/03/11 02:17:03;;;;;;;10.73;6.47;;;8.10;99.90;;;;;;4245672;27;20023;-61
2023/03/11 02:19:21;;;;;;;12.37;7.00;;;8.20;99.90;;;;;;4243891;27;20084;-61
2023/03/11 02:21:31;;;;;;;11.87;6.77;;;8.10;99.90;;;;;;4245799;27;20076;-61
2023/03/11 02:23:49;;;;;;;15.57;8.60;;;8.10;99.90;;;;;;4240502;27;20057;-64
2023/03/11 02:26:10;;;;;;;17.77;8.67;;;8.10;99.90;;;;;;4237161;27;20396;-61
2023/03/11 02:28:13;;;;;;;16.52;9.38;;;8.00;99.90;;;;;;4227703;28;20027;-61
2023/03/11 02:30:16;;;;;;;17.70;8.93;;;7.90;99.90;;;;;;4228442;27;20096;-60
2023/03/11 02:32:18;;;;;;;15.03;9.00;;;7.90;99.90;;;;;;4227387;28;20039;-63
2023/03/11 02:34:28;;;;;;;19.67;9.07;;;7.90;99.90;;;;;;4228739;28;20036;-60
2023/03/11 02:36:48;;;;;;;15.35;9.57;;;7.90;99.90;;;;;;4227270;28;20035;-62
2023/03/11 02:38:49;;;;;;;15.10;8.97;;;7.90;99.90;;;;;;4228460;28;20540;-64
2023/03/11 02:40:59;;;;;;;18.43;9.00;;;7.90;99.90;;;;;;4227419;28;20076;-64
2023/03/11 02:43:12;;;;;;;15.73;8.52;;;7.90;99.90;;;;;;4228614;28;20108;-63
2023/03/11 02:45:17;;;;;;;15.70;7.67;;;7.90;99.90;;;;;;4226782;28;20043;-66
2023/03/11 02:47:18;;;;;;;17.63;8.07;;;7.90;99.90;;;;;;4228368;28;20080;-68
2023/03/11 02:49:21;;;;;;;13.27;7.87;;;7.90;99.90;;;;;;4233181;28;20039;-60
2023/03/11 02:51:22;;;;;;;15.10;8.30;;;7.90;99.90;;;;;;4228579;28;20032;-63
2023/03/11 02:53:27;;;;;;;15.03;8.07;;;7.90;99.90;;;;;;4227161;28;20436;-65
2023/03/11 02:55:28;;;;;;;17.27;7.73;;;7.90;99.90;;;;;;4228299;28;20548;-61
2023/03/11 02:57:29;;;;;;;11.57;6.77;;;8.00;99.90;;;;;;4227018;28;20020;-62
2023/03/11 02:59:31;;;;;;;13.50;7.00;;;8.00;99.90;;;;;;4228629;28;20152;-61
2023/03/11 03:01:32;;;;;;;14.93;7.53;;;7.90;99.90;;;;;;4227301;28;20414;-61
2023/03/11 03:03:33;;;;;;;13.30;7.80;;;7.90;99.90;;;;;;4227894;28;20472;-63
2023/03/11 03:05:34;;;;;;;18.90;8.23;;;7.80;99.90;;;;;;4227004;28;20492;-62
2023/03/11 03:07:35;;;;;;;22.73;8.80;;;7.80;99.90;;;;;;4227596;28;20020;-62
2023/03/11 03:09:37;;;;;;;21.37;9.10;;;7.80;99.90;;;;;;4227353;28;20032;-61
2023/03/11 03:11:38;;;;;;;14.80;8.27;;;7.80;99.90;;;;;;4229507;28;20080;-63
2023/03/11 03:13:39;;;;;;;19.90;8.23;;;7.70;99.90;;;;;;4232655;27;20036;-60
2023/03/11 03:15:40;;;;;;;13.63;7.80;;;7.70;99.90;;;;;;4230510;27;20032;-61
2023/03/11 03:17:42;;;;;;;14.27;8.23;;;7.70;99.90;;;;;;4236508;27;20035;-61
2023/03/11 03:19:43;;;;;;;17.07;8.30;;;7.70;99.90;;;;;;4247006;27;20023;-61
2023/03/11 03:21:44;;;;;;;16.07;8.43;;;7.70;99.90;;;;;;4247029;27;20080;-61
2023/03/11 03:23:45;;;;;;;15.57;8.90;;;7.70;99.90;;;;;;4247044;27;20447;-61
2023/03/11 03:25:46;;;;;;;15.30;8.83;;;7.80;99.90;;;;;;4247603;27;20084;-62
2023/03/11 03:27:48;;;;;;;15.30;8.47;;;7.80;99.90;;;;;;4237503;27;20057;-64
2023/03/11 03:29:49;;;;;;;14.60;7.90;;;7.80;99.90;;;;;;4235366;27;20029;-62
2023/03/11 03:31:50;;;;;;;16.03;8.10;;;7.80;99.90;;;;;;4230112;28;20065;-65
2023/03/11 03:33:51;;;;;;;17.10;8.70;;;7.80;99.90;;;;;;4231846;27;20077;-63
2023/03/11 03:35:53;;;;;;;12.00;6.73;;;7.80;99.90;;;;;;4230035;28;20028;-61
2023/03/11 03:37:54;;;;;;;13.23;7.80;;;7.80;99.90;;;;;;4230631;28;20032;-61
2023/03/11 03:39:55;;;;;;;16.63;9.90;;;7.80;99.90;;;;;;4233696;27;20543;-61
2023/03/11 03:41:56;;;;;;;17.17;10.40;;;7.80;99.90;;;;;;4247101;27;20123;-63
2023/03/11 03:43:57;;;;;;;20.10;9.93;;;7.80;99.90;;;;;;4247048;27;20559;-61
2023/03/11 03:46:01;;;;;;;18.00;9.93;;;7.70;99.90;;;;;;4246642;27;20039;-61
2023/03/11 03:48:03;;;;;;;22.23;10.10;;;7.60;99.90;;;;;;4247830;27;20470;-64
2023/03/11 03:50:06;;;;;;;16.10;9.87;;;7.50;99.90;;;;;;4232641;27;20047;-62
2023/03/11 03:52:09;;;;;;;24.87;10.93;;;7.50;99.90;;;;;;4231232;28;20062;-61
2023/03/11 03:54:10;;;;;;;18.83;10.23;;;7.50;99.90;;;;;;4234960;27;20112;-61
2023/03/11 03:56:14;;;;;;;17.90;9.30;;;7.50;99.90;;;;;;4230926;28;20036;-65
2023/03/11 03:58:15;;;;;;;18.33;10.80;;;7.50;99.90;;;;;;4229508;28;20101;-61
2023/03/11 04:00:17;;;;;;;15.33;8.90;;;7.50;99.90;;;;;;4230604;28;20636;-61
2023/03/11 04:02:18;;;;;;;16.33;9.43;;;7.50;99.90;;;;;;4237217;27;20039;-61
2023/03/11 04:04:19;;;;;;;15.47;9.17;;;7.50;99.90;;;;;;4241658;27;20023;-62
2023/03/11 04:06:24;;;;;;;18.40;9.63;;;7.50;99.90;;;;;;4237290;27;20805;-61
2023/03/11 04:08:25;;;;;;;17.10;8.60;;;7.50;99.90;;;;;;4247423;27;20088;-64
2023/03/11 04:10:26;;;;;;;19.20;8.90;;;7.50;99.90;;;;;;4236881;27;20055;-61
2023/03/11 04:12:27;;;;;;;15.97;9.30;;;7.50;99.90;;;;;;4229915;28;20077;-62
2023/03/11 04:14:28;;;;;;;16.70;8.47;;;7.50;99.90;;;;;;4231056;27;20012;-64
2023/03/11 04:16:30;;;;;;;18.93;9.40;;;7.50;99.90;;;;;;4230781;27;20095;-62
2023/03/11 04:18:31;;;;;;;16.90;9.57;;;7.50;99.90;;;;;;4247275;27;20039;-61
2023/03/11 04:20:32;;;;;;;17.20;8.93;;;7.50;99.90;;;;;;4246252;27;20031;-61
2023/03/11 04:22:34;;;;;;;17.17;8.93;;;7.60;99.90;;;;;;4247233;27;20424;-62
2023/03/11 04:24:35;;;;;;;16.10;8.80;;;7.60;99.90;;;;;;4246071;27;20035;-65
2023/03/11 04:26:36;;;;;;;16.93;8.77;;;7.60;99.90;;;;;;4233037;27;20036;-61
2023/03/11 04:28:37;;;;;;;14.80;8.50;;;7.60;99.90;;;;;;4229079;28;20031;-62
2023/03/11 04:30:39;;;;;;;14.80;8.57;;;7.60;99.90;;;;;;4229968;28;20066;-62
2023/03/11 04:32:40;;;;;;;14.13;7.50;;;7.60;99.90;;;;;;4229174;28;20039;-62
2023/03/11 04:34:41;;;;;;;15.47;7.40;;;7.60;99.90;;;;;;4230065;28;20078;-68
2023/03/11 04:36:43;;;;;;;13.33;6.93;;;7.60;99.90;;;;;;4228873;28;20425;-65
2023/03/11 04:38:45;;;;;;;9.83;6.87;;;7.70;99.90;;;;;;4231785;27;20432;-60
2023/03/11 04:40:46;;;;;;;12.07;6.60;;;7.70;99.90;;;;;;4246255;27;20015;-61
2023/03/11 04:42:48;;;;;;;8.70;5.70;;;7.70;99.90;;;;;;4246519;27;20084;-67
2023/03/11 04:44:49;;;;;;;7.30;5.00;;;7.70;99.90;;;;;;4245929;27;20463;-65
2023/03/11 04:46:50;;;;;;;6.90;3.80;;;7.70;99.90;;;;;;4244762;27;20039;-61
2023/03/11 04:48:52;;;;;;;8.53;4.90;;;7.70;99.90;;;;;;4246781;27;20019;-60
2023/03/11 04:50:54;;;;;;;10.00;4.40;;;7.80;99.90;;;;;;4245572;27;20100;-62
2023/03/11 04:52:55;;;;;;;8.23;4.20;;;7.80;99.90;;;;;;4247265;27;20039;-63
2023/03/11 04:54:57;;;;;;;16.80;4.70;;;7.70;99.90;;;;;;4245609;27;20340;-60
2023/03/11 04:56:58;;;;;;;12.03;3.83;;;7.80;99.90;;;;;;4246743;27;20060;-60
2023/03/11 04:58:59;;;;;;;13.87;4.73;;;7.80;99.90;;;;;;4245696;27;20039;-61
2023/03/11 05:01:00;;;;;;;7.70;3.80;;;7.80;99.90;;;;;;4243037;27;20084;-65
2023/03/11 05:03:01;;;;;;;7.03;3.33;;;7.80;99.90;;;;;;4235659;27;20051;-61
2023/03/11 05:05:03;;;;;;;4.67;3.00;;;7.80;99.90;;;;;;4232709;27;20100;-63
2023/03/11 05:07:04;;;;;;;7.77;3.87;;;7.90;99.90;;;;;;4241415;27;20027;-64
2023/03/11 05:09:05;;;;;;;3.97;2.80;;;7.80;99.90;;;;;;4230325;27;20483;-61
2023/03/11 05:11:07;;;;;;;5.27;3.47;;;7.80;99.90;;;;;;4235574;27;20039;-62
2023/03/11 05:13:08;;;;;;;4.57;3.27;;;7.80;99.90;;;;;;4244174;27;20409;-64
2023/03/11 05:15:10;;;;;;;7.37;3.63;;;7.80;99.90;;;;;;4245764;27;20071;-64
2023/03/11 05:17:12;;;;;;;4.93;3.30;;;7.90;99.90;;;;;;4245660;27;20068;-63
2023/03/11 05:19:33;;;;;;;5.43;3.30;;;7.90;99.90;;;;;;4229062;27;20084;-66
2023/03/11 05:21:34;;;;;;;4.57;3.40;;;8.00;99.90;;;;;;4228976;28;20077;-66
2023/03/11 05:23:36;;;;;;;10.30;3.23;;;8.00;99.90;;;;;;4228984;28;20023;-60
2023/03/11 05:25:37;;;;;;;8.50;3.17;;;8.10;99.90;;;;;;4228085;28;20073;-67
2023/03/11 05:27:38;;;;;;;5.30;2.60;;;8.20;99.90;;;;;;4235910;27;20428;-66
2023/03/11 05:29:39;;;;;;;3.77;2.27;;;8.20;99.90;;;;;;4244748;27;20027;-62
2023/03/11 05:31:40;;;;;;;3.67;2.17;;;8.30;99.90;;;;;;4245789;27;20043;-61
2023/03/11 05:33:41;;;;;;;2.37;1.70;;;8.30;99.90;;;;;;4244664;27;20555;-60
2023/03/11 05:35:42;;;;;;;2.90;1.10;;;8.40;99.90;;;;;;4245650;27;20043;-65
2023/03/11 05:37:44;;;;;;;3.57;1.87;;;8.40;99.90;;;;;;4244812;27;20083;-63
2023/03/11 05:39:45;;;;;;;2.27;0.97;;;8.50;99.90;;;;;;4245709;27;20023;-61
2023/03/11 05:41:46;;;;;;;1.57;1.30;;;8.50;99.90;;;;;;4244732;27;20417;-65
2023/03/11 05:43:47;;;;;;;2.27;1.33;;;8.50;99.90;;;;;;4245632;27;20487;-67
2023/03/11 05:45:48;;;;;;;3.20;1.50;;;8.40;99.90;;;;;;4244809;27;20027;-63
2023/03/11 05:47:51;;;;;;;1.63;1.50;;;8.40;99.90;;;;;;4245453;27;20455;-67
2023/03/11 05:49:52;;;;;;;1.97;1.20;;;8.40;99.90;;;;;;4244944;27;20027;-59
2023/03/11 05:51:53;;;;;;;1.80;1.13;;;8.40;99.90;;;;;;4245184;27;20031;-68
2023/03/11 05:53:54;;;;;;;2.23;0.70;;;8.30;99.90;;;;;;4244856;27;20035;-64
2023/03/11 05:55:57;;;;;;;1.30;1.00;;;8.30;99.90;;;;;;4244778;27;20043;-61
2023/03/11 05:57:58;;;;;;;1.70;0.60;;;8.30;99.90;;;;;;4243711;27;20043;-60
2023/03/11 05:59:59;;;;;;;0.73;0.67;;;8.20;99.90;;;;;;4244290;27;20080;-64
2023/03/11 06:02:01;;;;;;;0.87;0.40;;;8.20;99.90;;;;;;4237157;27;20027;-60
2023/03/11 06:04:04;;;;;;;0.40;0.40;;;8.20;99.90;;;;;;4236000;27;20418;-61
2023/03/11 06:06:08;;;;;;;1.33;0.33;;;8.20;99.90;;;;;;4233866;27;20128;-65
2023/03/11 06:08:09;;;;;;;0.40;0.20;;;8.20;99.90;;;;;;4227234;28;20035;-69
2023/03/11 06:10:11;;;;;;;1.30;0.70;;;8.20;99.90;;;;;;4228613;28;20484;-67
2023/03/11 06:12:12;;;;;;;0.50;0.50;;;8.20;99.90;;;;;;4227445;28;20069;-66
2023/03/11 06:14:14;;;;;;;0.63;0.50;;;8.20;99.90;;;;;;4229423;27;20081;-65
2023/03/11 06:16:15;;;;;;;0.60;0.40;;;8.20;99.90;;;;;;4227325;28;20035;-64
2023/03/11 06:18:16;;;;;;;1.50;0.53;;;8.20;99.90;;;;;;4228203;28;20035;-66
2023/03/11 06:20:18;;;;;;;1.93;1.33;;;8.20;99.90;;;;;;4227029;28;20440;-67
2023/03/11 06:22:20;;;;;;;2.70;2.10;;;8.30;99.90;;;;;;4228060;28;20032;-60
2023/03/11 06:24:21;;;;;;;7.40;5.73;;;8.20;99.90;;;;;;4227576;28;20032;-63
2023/03/11 06:26:23;;;;;;;18.80;11.27;;;8.20;99.90;;;;;;4227526;28;20032;-68
2023/03/11 06:28:24;;;;;;;13.00;7.77;;;8.30;99.90;;;;;;4228642;27;20429;-61
2023/03/11 06:30:25;;;;;;;16.90;10.27;;;8.30;99.90;;;;;;4242579;27;20112;-61
2023/03/11 06:32:28;;;;;;;17.27;11.50;;;8.30;99.90;;;;;;4235983;27;20036;-61
2023/03/11 06:34:29;;;;;;;9.83;6.67;;;8.30;99.90;;;;;;4226947;28;20065;-60
2023/03/11 06:36:31;;;;;;;8.50;5.43;;;8.30;99.90;;;;;;4227937;28;20471;-61
2023/03/11 06:38:33;;;;;;;8.50;5.27;;;8.30;99.90;;;;;;4226881;28;20097;-62
2023/03/11 06:40:37;;;;;;;14.33;6.40;;;8.30;99.90;;;;;;4228266;28;20096;-62
2023/03/11 06:42:38;;;;;;;13.80;7.40;;;8.30;99.90;;;;;;4227050;28;20035;-65
2023/03/11 06:44:39;;;;;;;11.60;7.20;;;8.30;99.90;;;;;;4227942;28;20502;-69
2023/03/11 06:46:40;;;;;;;10.87;5.87;;;8.30;99.90;;;;;;4226672;28;20088;-61
2023/03/11 06:48:42;;;;;;;8.83;5.67;;;8.30;99.90;;;;;;4239879;28;20096;-60
2023/03/11 06:50:43;;;;;;;5.53;4.63;;;8.40;99.90;;;;;;4243519;28;20095;-61
2023/03/11 06:52:44;;;;;;;5.80;2.57;;;8.30;99.90;;;;;;4242085;28;20092;-60
2023/03/11 06:54:45;;;;;;;6.10;4.37;;;8.40;99.90;;;;;;4241482;28;20031;-63
2023/03/11 06:56:47;;;;;;;3.37;2.70;;;8.40;99.90;;;;;;4242286;28;20027;-65
2023/03/11 06:58:49;;;;;;;4.47;3.10;;;8.40;99.90;;;;;;4232870;28;20471;-62
2023/03/11 07:00:50;;;;;;;4.37;2.83;;;8.40;99.90;;;;;;4244091;27;20096;-61
2023/03/11 07:02:51;;;;;;;4.87;2.83;;;8.40;99.90;;;;;;4244217;28;20072;-60
2023/03/11 07:04:52;;;;;;;4.47;2.87;;;8.50;99.90;;;;;;4243590;28;20084;-60
2023/03/11 07:06:53;;;;;;;3.93;3.03;;;8.50;99.90;;;;;;4244652;27;20031;-62
2023/03/11 07:08:54;;;;;;;2.30;1.93;;;8.60;99.90;;;;;;4243705;28;20024;-65
2023/03/11 07:11:06;;;;;;;3.20;1.30;;;8.60;99.90;;;;;;4245063;27;20122;-62
2023/03/11 07:13:07;;;;;;;1.80;1.40;;;8.60;99.90;;;;;;4243796;27;20035;-62
2023/03/11 07:15:09;;;;;;;2.33;1.73;;;8.70;99.90;;;;;;4239168;28;20024;-66
2023/03/11 07:17:10;;;;;;;3.20;2.37;;;8.70;99.90;;;;;;4226572;28;20035;-61
2023/03/11 07:19:12;;;;;;;3.03;2.20;;;8.80;99.90;;;;;;4227772;28;20044;-61
2023/03/11 07:21:15;;;;;;;2.47;1.60;;;8.90;99.90;;;;;;4227156;28;20361;-59
2023/03/11 07:23:16;;;;;;;1.60;1.50;;;8.90;99.90;;;;;;4229001;28;20081;-61
2023/03/11 07:25:17;;;;;;;2.43;1.80;;;8.90;99.90;;;;;;4226786;28;20081;-61
2023/03/11 07:27:19;;;;;;;2.53;1.80;;;8.90;99.90;;;;;;4240745;28;20043;-63
2023/03/11 07:29:20;;;;;;;1.97;1.40;;;9.00;99.90;;;;;;4243646;27;20027;-62
2023/03/11 07:31:28;;;;;;;2.30;1.87;;;9.10;99.90;;;;;;4233705;28;20040;-65
2023/03/11 07:33:29;;;;;;;4.53;3.10;;;9.10;99.90;;;;;;4226868;28;20023;-60
2023/03/11 07:35:30;;;;;;;3.17;2.13;;;9.10;99.90;;;;;;4227262;28;20080;-61
2023/03/11 07:37:31;;;;;;;3.10;2.00;;;9.20;99.90;;;;;;4242918;28;20027;-66
2023/03/11 07:39:32;;;;;;;2.57;1.80;;;9.20;99.90;;;;;;4243594;28;20023;-61
2023/03/11 07:41:34;;;;;;;7.97;5.23;;;9.30;99.90;;;;;;4244376;27;20035;-61
2023/03/11 07:43:35;;;;;;;9.33;5.60;;;9.30;99.90;;;;;;4230771;28;21160;-62
2023/03/11 07:45:37;;;;;;;5.47;3.50;;;9.40;99.90;;;;;;4227603;28;20036;-60
2023/03/11 07:47:38;;;;;;;8.30;3.97;;;9.50;99.90;;;;;;4226547;28;20043;-59
2023/03/11 07:49:39;;;;;;;6.10;4.53;;;9.60;99.90;;;;;;4244609;27;20448;-61
2023/03/11 07:51:42;;;;;;;4.67;3.50;;;9.70;99.90;;;;;;4243615;27;20096;-63
2023/03/11 07:53:43;;;;;;;4.93;3.57;;;9.80;99.90;;;;;;4243660;27;20047;-63
2023/03/11 07:55:45;;;;;;;4.93;3.10;;;9.90;99.90;;;;;;4243349;28;20027;-63
2023/03/11 07:57:47;;;;;;;3.60;3.00;;;9.90;99.90;;;;;;4245318;27;20432;-67
2023/03/11 07:59:49;;;;;;;3.13;2.83;;;10.00;99.90;;;;;;4246427;27;20095;-62
2023/03/11 08:01:51;;;;;;;6.27;4.50;;;10.30;99.90;;;;;;4246590;27;20444;-62
2023/03/11 08:03:57;;;;;;;5.00;4.27;;;10.60;99.90;;;;;;4240829;27;20027;-60
2023/03/11 08:05:59;;;;;;;6.20;4.63;;;10.90;99.90;;;;;;4229678;28;20077;-67
2023/03/11 08:08:00;;;;;;;3.50;3.20;;;11.10;99.90;;;;;;4229915;27;20139;-61
2023/03/11 08:10:01;;;;;;;7.00;3.53;;;11.40;99.90;;;;;;4229805;28;20077;-61
2023/03/11 08:12:02;;;;;;;6.50;4.00;;;11.60;99.90;;;;;;4235682;27;20031;-61
2023/03/11 08:14:04;;;;;;;5.33;3.87;;;11.90;99.90;;;;;;4246024;27;20451;-61
2023/03/11 08:16:07;;;;;;;3.77;3.27;;;12.30;99.90;;;;;;4247136;27;20128;-62
2023/03/11 08:18:08;;;;;;;3.23;2.60;;;12.60;99.90;;;;;;4244732;27;20031;-65
2023/03/11 08:20:10;;;;;;;10.23;5.30;;;12.80;99.90;;;;;;4230389;27;20031;-62
2023/03/11 08:22:11;;;;;;;5.57;3.30;;;12.80;99.90;;;;;;4233194;27;20023;-62
2023/03/11 08:24:13;;;;;;;5.33;2.63;;;12.80;99.90;;;;;;4240522;27;20084;-60
2023/03/11 08:26:20;;;;;;;10.43;5.47;;;12.60;99.90;;;;;;4228473;28;20443;-63
2023/03/11 08:28:21;;;;;;;5.83;3.27;;;12.80;99.90;;;;;;4228426;28;20104;-68
2023/03/11 08:30:24;;;;;;;5.77;3.57;;;12.90;97.90;;;;;;4228926;27;20425;-65
2023/03/11 08:32:25;;;;;;;5.13;1.60;;;12.90;97.60;;;;;;4230643;27;20093;-61
2023/03/11 08:34:26;;;;;;;14.17;5.13;;;12.90;97.40;;;;;;4240884;27;20023;-64
2023/03/11 08:36:28;;;;;;;10.10;1.47;;;12.80;96.50;;;;;;4245714;27;20035;-62
2023/03/11 08:38:29;;;;;;;7.93;4.20;;;12.70;95.20;;;;;;4242199;27;20432;-62
2023/03/11 08:40:30;;;;;;;6.97;3.63;;;12.70;94.80;;;;;;4231814;27;20425;-61
2023/03/11 08:42:31;;;;;;;10.97;2.70;;;12.80;94.10;;;;;;4230118;27;20127;-62
2023/03/11 08:44:33;;;;;;;4.57;2.40;;;12.80;93.20;;;;;;4228389;28;20047;-62
2023/03/11 08:46:36;;;;;;;11.03;4.30;;;12.70;91.40;;;;;;4230458;27;20031;-68
2023/03/11 08:48:38;;;;;;;5.70;1.80;;;12.70;91.60;;;;;;4234111;27;20098;-64
2023/03/11 08:50:43;;;;;;;3.57;1.47;;;12.90;91.50;;;;;;4237552;27;20023;-64
2023/03/11 08:52:44;;;;;;;2.57;1.57;;;12.90;86.30;;;;;;4227884;28;20092;-64
2023/03/11 08:54:45;;;;;;;4.47;1.80;;;12.80;87.60;;;;;;4229516;28;20027;-65
2023/03/11 08:56:46;;;;;;;4.33;0.90;;;12.70;83.80;;;;;;4228630;27;20036;-63
2023/03/11 08:58:49;;;;;;;1.53;0.60;;;12.50;82.50;;;;;;4232431;27;20102;-62
2023/03/11 09:00:50;;;;;;;1.50;0.77;;;12.20;82.40;;;;;;4245088;27;20137;-61
2023/03/11 09:02:52;;;;;;;2.83;1.10;;;12.10;83.80;;;;;;4246354;27;20031;-63
2023/03/11 09:04:53;;;;;;;2.97;0.73;;;12.00;83.50;;;;;;4245151;27;20030;-68
2023/03/11 09:06:54;;;;;;;1.30;1.10;;;11.90;83.70;;;;;;4245568;27;20027;-62
2023/03/11 09:08:55;;;;;;;0.97;0.53;;;12.00;83.60;;;;;;4245169;27;20023;-80
2023/03/11 09:10:57;;;;;;;4.10;1.20;;;12.00;82.70;;;;;;4245588;27;20095;-66
2023/03/11 09:12:58;;;;;;;8.17;2.20;;;12.10;83.20;;;;;;4244130;27;20039;-64
2023/03/11 09:14:59;;;;;;;1.93;1.20;;;12.20;82.80;;;;;;4245154;27;20127;-67
2023/03/11 09:17:00;;;;;;;2.83;0.60;;;12.30;81.70;;;;;;4239583;27;20552;-65
2023/03/11 09:19:05;;;;;;;3.10;1.57;;;12.20;80.60;;;;;;4227931;27;20069;-71
2023/03/11 09:21:07;;;;;;;4.90;0.87;;;12.20;81.70;;;;;;4228423;27;20032;-64
2023/03/11 09:23:09;;;;;;;1.87;1.03;;;12.10;82.50;;;;;;4227882;28;20040;-71
2023/03/11 09:25:11;;;;;;;9.80;1.20;;;12.10;82.10;;;;;;4229341;28;20413;-70
2023/03/11 09:27:14;;;;;;;2.37;0.60;;;12.10;81.00;;;;;;4227846;28;20505;-68
2023/03/11 09:29:15;;;;;;;1.83;0.63;;;12.00;80.00;;;;;;4231579;27;20027;-64
2023/03/11 09:31:17;;;;;;;6.03;0.50;;;11.90;78.50;;;;;;4239762;27;20035;-65
2023/03/11 09:33:18;;;;;;;1.30;0.40;;;11.90;78.70;;;;;;4229192;27;20436;-64
2023/03/11 09:35:19;;;;;;;2.53;0.90;;;12.00;79.40;;;;;;4238899;27;20050;-64
2023/03/11 09:37:20;;;;;;;1.37;0.43;;;12.20;79.60;;;;;;4228473;28;20060;-70
2023/03/11 09:39:22;;;;;;;0.67;0.40;;;12.30;78.00;;;;;;4227400;28;20023;-64
2023/03/11 09:41:40;;;;;;;0.60;0.30;;;12.20;77.00;;;;;;4226754;28;20476;-68
2023/03/11 09:44:04;;;;;;;1.70;0.50;;;12.20;76.70;;;;;;4227358;28;20167;-63
2023/03/11 09:46:17;;;;;;;3.43;0.47;;;12.30;75.80;;;;;;4228728;28;20036;-69
2023/03/11 09:48:30;;;;;;;1.47;0.40;;;12.30;75.80;;;;;;4227418;28;20031;-64
2023/03/11 09:50:34;;;;;;;0.27;0.10;;;12.40;75.60;;;;;;4228487;28;20020;-67
2023/03/11 09:52:41;;;;;;;0.30;0.00;;;12.40;76.70;;;;;;4236108;27;20479;-64
2023/03/11 09:54:52;;;;;;;1.60;0.53;;;12.40;75.80;;;;;;4245749;27;20531;-63
2023/03/11 09:56:54;;;;;;;0.93;0.17;;;12.50;75.80;;;;;;4244096;27;20487;-67
2023/03/11 09:59:01;;;;;;;2.80;0.30;;;12.70;76.80;;;;;;4245191;27;20520;-65
2023/03/11 10:01:22;;;;;;;0.33;0.20;;;12.90;77.50;;;;;;4242855;27;20072;-67
2023/03/11 10:03:29;;;;;;;;;;;13.10;76.20;;;;;;4245826;27;20535;-68
2023/03/11 10:05:32;;;;;;;1.27;0.20;;;12.90;73.50;;;;;;4243094;27;19911;-63
2023/03/11 10:07:39;;;;;;;0.97;0.30;;;12.80;75.40;;;;;;4245145;27;20474;-63
2023/03/11 10:09:50;;;;;;;0.70;0.20;;;12.90;75.50;;;;;;4244291;27;20023;-63
2023/03/11 10:12:01;;;;;;;0.43;0.10;;;12.70;74.80;;;;;;4241532;27;20039;-65
2023/03/11 10:14:52;;;;;;;2.00;0.10;;;12.70;76.20;;;;;;4243594;27;20038;-64
2023/03/11 10:17:01;;;;;;;0.60;0.15;;;12.60;76.20;;;;;;4199804;28;20032;-71
2023/03/11 10:19:07;;;;;;;1.13;0.40;;;12.50;78.00;;;;;;4195467;28;20468;-63
2023/03/11 10:21:17;;;;;;;0.57;0.20;;;12.40;78.60;;;;;;4204909;28;20032;-70
2023/03/11 10:23:30;;;;;;;0.93;0.20;;;12.40;77.50;;;;;;4238050;27;20035;-62
2023/03/11 10:25:50;;;;;;;2.13;0.20;;;12.20;77.30;;;;;;4233199;27;20502;-66
2023/03/11 10:27:59;;;;;;;0.30;0.10;;;12.10;77.20;;;;;;4231720;27;20055;-64
2023/03/11 10:30:14;;;;;;;0.73;0.40;;;12.00;77.80;;;;;;4227500;27;20085;-65
2023/03/11 10:32:38;;;;;;;1.00;0.13;;;12.00;77.80;;;;;;4236829;27;20106;-69
2023/03/11 10:34:46;;;;;;;1.40;0.10;;;12.00;78.20;;;;;;4235154;27;20088;-65
2023/03/11 10:36:53;;;;;;;1.33;0.13;;;12.00;78.60;;;;;;4241878;27;20034;-68
2023/03/11 10:38:55;;;;;;;0.77;0.23;;;12.30;79.00;;;;;;4245197;27;20409;-63
2023/03/11 10:41:02;;;;;;;0.30;0.20;;;12.50;79.30;;;;;;4242570;27;20368;-67